Time,TemperatureF,DewpointF,PressureIn,WindDirection,WindDirectionDegrees,WindSpeedMPH,WindSpeedGustMPH,Humidity,HourlyPrecipIn,Conditions,Clouds,dailyrainin,SoftwareType,DateUTC
2013-11-13 00:00:00,20.7,16.4,30.71,North,10,0.0,1.0,83,0.00,,---,0.00,VWS V14.01,2013-11-13 06:00:00,
2013-11-13 00:02:00,20.8,16.5,30.71,North,10,0.0,0.0,83,0.00,,---,0.00,VWS V14.01,2013-11-13 06:02:00,
2013-11-13 00:14:00,21.1,17.0,30.71,North,10,0.0,2.0,84,0.00,,---,0.00,VWS V14.01,2013-11-13 06:14:00,
2013-11-13 00:17:00,21.1,17.0,30.71,North,10,0.0,2.0,84,0.00,,---,0.00,VWS V14.01,2013-11-13 06:17:00,
2013-11-13 00:20:00,21.1,17.3,30.71,North,10,0.0,2.0,85,0.00,,---,0.00,VWS V14.01,2013-11-13 06:20:00,
2013-11-13 00:23:00,21.1,17.0,30.70,North,10,0.0,2.0,84,0.00,,---,0.00,VWS V14.01,2013-11-13 06:23:00,
2013-11-13 00:26:00,20.7,16.1,30.70,North,10,0.0,2.0,82,0.00,,---,0.00,VWS V14.01,2013-11-13 06:26:00,
2013-11-13 00:29:00,20.4,15.8,30.70,North,10,0.0,2.0,82,0.00,,---,0.00,VWS V14.01,2013-11-13 06:29:00,
2013-11-13 00:30:00,20.3,15.7,30.70,North,10,0.0,2.0,82,0.00,,---,0.00,VWS V14.01,2013-11-13 06:30:00,
2013-11-13 00:32:00,20.1,15.8,30.70,North,10,0.0,0.0,83,0.00,,---,0.00,VWS V14.01,2013-11-13 06:32:00,
2013-11-13 00:35:00,20.0,15.7,30.70,North,10,0.0,0.0,83,0.00,,---,0.00,VWS V14.01,2013-11-13 06:35:00,
2013-11-13 00:38:00,19.7,15.4,30.70,North,10,0.0,0.0,83,0.00,,---,0.00,VWS V14.01,2013-11-13 06:38:00,
2013-11-13 00:41:00,19.4,15.1,30.70,North,10,0.0,0.0,83,0.00,,---,0.00,VWS V14.01,2013-11-13 06:41:00,
2013-11-13 00:44:00,19.2,14.9,30.70,North,10,0.0,1.0,83,0.00,,---,0.00,VWS V14.01,2013-11-13 06:44:00,
2013-11-13 00:47:00,19.0,15.0,30.70,North,10,0.0,1.0,84,0.00,,---,0.00,VWS V14.01,2013-11-13 06:47:00,
2013-11-13 00:50:00,18.9,14.9,30.70,North,10,0.0,1.0,84,0.00,,---,0.00,VWS V14.01,2013-11-13 06:50:00,
2013-11-13 00:53:00,18.9,15.1,30.70,North,10,0.0,1.0,85,0.00,,---,0.00,VWS V14.01,2013-11-13 06:53:00,
2013-11-13 00:56:00,18.8,15.1,30.70,North,10,0.0,1.0,85,0.00,,---,0.00,VWS V14.01,2013-11-13 06:56:00,
2013-11-13 00:59:00,18.7,14.9,30.70,North,10,0.0,1.0,85,0.00,,---,0.00,VWS V14.01,2013-11-13 06:59:00,
2013-11-13 01:00:00,18.7,14.9,30.70,North,10,0.0,1.0,85,0.00,,---,0.00,VWS V14.01,2013-11-13 07:00:00,
2013-11-13 01:09:00,18.3,14.6,30.70,North,10,0.0,1.0,85,0.00,,---,0.00,VWS V14.01,2013-11-13 07:09:00,
2013-11-13 01:12:00,18.2,14.5,30.70,North,10,0.0,1.0,85,0.00,,---,0.00,VWS V14.01,2013-11-13 07:12:00,
2013-11-13 01:15:00,18.2,14.7,30.70,North,10,1.0,2.0,86,0.00,,---,0.00,VWS V14.01,2013-11-13 07:15:00,
2013-11-13 01:18:00,18.0,14.3,30.70,North,10,0.0,2.0,85,0.00,,---,0.00,VWS V14.01,2013-11-13 07:18:00,
2013-11-13 01:30:00,17.4,13.9,30.71,North,10,1.0,2.0,86,0.00,,---,0.00,VWS V14.01,2013-11-13 07:30:00,
2013-11-13 01:33:00,17.4,13.9,30.71,North,10,0.0,1.0,86,0.00,,---,0.00,VWS V14.01,2013-11-13 07:33:00,
2013-11-13 01:36:00,17.3,13.8,30.70,North,10,0.0,1.0,86,0.00,,---,0.00,VWS V14.01,2013-11-13 07:36:00,
2013-11-13 01:39:00,17.3,13.8,30.71,North,10,0.0,1.0,86,0.00,,---,0.00,VWS V14.01,2013-11-13 07:39:00,
2013-11-13 01:51:00,17.3,13.8,30.71,North,10,0.0,1.0,86,0.00,,---,0.00,VWS V14.01,2013-11-13 07:51:00,
2013-11-13 01:54:00,17.2,13.7,30.71,North,10,0.0,1.0,86,0.00,,---,0.00,VWS V14.01,2013-11-13 07:54:00,
2013-11-13 01:57:00,17.0,13.5,30.71,North,10,0.0,1.0,86,0.00,,---,0.00,VWS V14.01,2013-11-13 07:57:00,
2013-11-13 02:00:00,17.0,13.5,30.71,North,10,0.0,1.0,86,0.00,,---,0.00,VWS V14.01,2013-11-13 08:00:00,
2013-11-13 02:01:00,18.5,14.8,30.70,North,10,0.0,1.0,85,0.00,,---,0.00,VWS V14.01,2013-11-13 08:01:00,
2013-11-13 02:03:00,16.8,13.4,30.71,North,10,1.0,1.0,86,0.00,,---,0.00,VWS V14.01,2013-11-13 08:03:00,
2013-11-13 02:06:00,16.6,13.1,30.71,North,10,1.0,2.0,86,0.00,,---,0.00,VWS V14.01,2013-11-13 08:06:00,
2013-11-13 02:09:00,16.5,13.1,30.71,North,10,1.0,2.0,86,0.00,,---,0.00,VWS V14.01,2013-11-13 08:09:00,
2013-11-13 02:12:00,16.4,12.9,30.71,North,10,0.0,2.0,86,0.00,,---,0.00,VWS V14.01,2013-11-13 08:12:00,
2013-11-13 02:15:00,16.4,12.9,30.71,North,10,0.0,2.0,86,0.00,,---,0.00,VWS V14.01,2013-11-13 08:15:00,
2013-11-13 02:18:00,16.3,13.1,30.71,North,10,1.0,2.0,87,0.00,,---,0.00,VWS V14.01,2013-11-13 08:18:00,
2013-11-13 02:19:00,17.7,13.7,30.71,North,10,0.0,2.0,84,0.00,,---,0.00,VWS V14.01,2013-11-13 08:19:00,
2013-11-13 02:21:00,16.4,13.2,30.71,North,10,1.0,2.0,87,0.00,,---,0.00,VWS V14.01,2013-11-13 08:21:00,
2013-11-13 02:24:00,16.5,13.3,30.71,North,10,0.0,2.0,87,0.00,,---,0.00,VWS V14.01,2013-11-13 08:24:00,
2013-11-13 02:26:00,17.5,13.8,30.71,North,10,0.0,2.0,85,0.00,,---,0.00,VWS V14.01,2013-11-13 08:26:00,
2013-11-13 02:41:00,17.4,13.9,30.70,North,10,0.0,1.0,86,0.00,,---,0.00,VWS V14.01,2013-11-13 08:41:00,
2013-11-13 02:47:00,17.3,13.8,30.71,North,10,0.0,1.0,86,0.00,,---,0.00,VWS V14.01,2013-11-13 08:47:00,